createdAt,value
2023-05-05T00:01:37.477Z,17.25
2023-05-05T00:04:08.130Z,17.23
2023-05-05T00:06:38.737Z,17.21
2023-05-05T00:09:09.262Z,17.19
2023-05-05T00:11:39.705Z,17.17
2023-05-05T00:14:11.190Z,17.16
2023-05-05T00:16:41.699Z,17.14
2023-05-05T00:19:12.223Z,17.12
2023-05-05T00:21:42.664Z,17.11
2023-05-05T00:24:13.087Z,17.10
2023-05-05T00:26:43.529Z,17.08
2023-05-05T00:29:14.012Z,17.06
2023-05-05T00:31:44.469Z,17.04
2023-05-05T00:34:14.921Z,17.03
2023-05-05T00:36:45.412Z,17.02
2023-05-05T00:39:15.953Z,17.00
2023-05-05T00:41:46.412Z,16.98
2023-05-05T00:44:16.877Z,16.96
2023-05-05T00:46:47.573Z,16.95
2023-05-05T00:49:18.172Z,16.94
2023-05-05T00:51:48.672Z,16.93
2023-05-05T00:54:19.170Z,16.93
2023-05-05T00:56:51.146Z,16.92
2023-05-05T00:59:22.050Z,16.91
2023-05-05T01:01:52.513Z,16.90
2023-05-05T01:04:23.100Z,16.89
2023-05-05T01:07:04.977Z,16.87
2023-05-05T01:09:48.201Z,16.85
2023-05-05T01:12:28.253Z,16.83
2023-05-05T01:15:12.292Z,16.82
2023-05-05T01:17:49.000Z,16.80
2023-05-05T01:20:26.388Z,16.79
2023-05-05T01:23:03.930Z,16.77
2023-05-05T01:26:04.087Z,16.76
2023-05-05T01:28:49.858Z,16.74
2023-05-05T01:31:33.666Z,16.72
2023-05-05T01:34:08.558Z,16.71
2023-05-05T01:36:42.958Z,16.70
2023-05-05T01:39:17.425Z,16.70
2023-05-05T01:41:50.548Z,16.70
2023-05-05T01:44:21.784Z,16.68
2023-05-05T01:46:55.630Z,16.68
2023-05-05T01:49:27.655Z,16.66
2023-05-05T01:51:59.640Z,16.64
2023-05-05T01:54:33.241Z,16.62
2023-05-05T01:57:06.551Z,16.62
2023-05-05T01:59:39.930Z,16.60
2023-05-05T02:02:12.284Z,16.58
2023-05-05T02:04:45.388Z,16.57
2023-05-05T02:07:18.013Z,16.56
2023-05-05T02:09:49.318Z,16.54
2023-05-05T02:12:21.976Z,16.53
2023-05-05T02:14:54.359Z,16.51
2023-05-05T02:17:26.606Z,16.50
2023-05-05T02:19:59.991Z,16.48
2023-05-05T02:22:31.674Z,16.46
2023-05-05T02:25:00.969Z,16.45
2023-05-05T02:27:34.970Z,16.42
2023-05-05T02:30:09.774Z,16.41
2023-05-05T02:32:45.904Z,16.39
2023-05-05T02:35:20.996Z,16.37
2023-05-05T02:38:00.129Z,16.36
2023-05-05T02:40:34.273Z,16.34
2023-05-05T02:43:08.455Z,16.33
2023-05-05T02:45:39.346Z,16.31
2023-05-05T02:48:13.070Z,16.30
2023-05-05T02:50:43.984Z,16.29
2023-05-05T02:53:27.914Z,16.27
2023-05-05T02:56:06.990Z,16.25
2023-05-05T02:58:47.303Z,16.23
2023-05-05T03:01:41.505Z,16.22
2023-05-05T03:04:16.724Z,16.19
2023-05-05T03:06:54.977Z,16.17
2023-05-05T03:09:31.186Z,16.15
2023-05-05T03:12:05.608Z,16.14
2023-05-05T03:14:44.232Z,16.12
2023-05-05T03:17:18.604Z,16.10
2023-05-05T03:19:50.417Z,16.08
2023-05-05T03:22:21.260Z,16.05
2023-05-05T03:24:53.711Z,16.03
2023-05-05T03:27:26.869Z,16.01
2023-05-05T03:29:57.670Z,15.99
2023-05-05T03:32:30.776Z,15.97
2023-05-05T03:35:01.415Z,15.95
2023-05-05T03:37:34.856Z,15.94
2023-05-05T03:40:06.445Z,15.92
2023-05-05T03:42:37.241Z,15.90
2023-05-05T03:45:09.260Z,15.89
2023-05-05T03:47:40.264Z,15.87
2023-05-05T03:50:12.250Z,15.84
2023-05-05T03:52:43.105Z,15.83
2023-05-05T03:55:13.834Z,15.81
2023-05-05T03:57:46.019Z,15.80
2023-05-05T04:00:17.855Z,15.79
2023-05-05T04:02:49.850Z,15.78
2023-05-05T04:05:19.951Z,15.75
2023-05-05T04:07:50.811Z,15.72
2023-05-05T04:10:21.502Z,15.71
2023-05-05T04:12:52.261Z,15.70
2023-05-05T04:15:22.767Z,15.69
2023-05-05T04:17:53.453Z,15.67
2023-05-05T04:20:24.216Z,15.66
2023-05-05T04:22:54.673Z,15.65
2023-05-05T04:25:25.567Z,15.64
2023-05-05T04:27:56.443Z,15.63
2023-05-05T04:30:27.312Z,15.62
2023-05-05T04:32:57.822Z,15.61
2023-05-05T04:35:28.556Z,15.60
2023-05-05T04:37:59.200Z,15.59
2023-05-05T04:40:30.003Z,15.59
2023-05-05T04:43:00.949Z,15.58
2023-05-05T04:45:32.473Z,15.57
2023-05-05T04:48:04.406Z,15.57
2023-05-05T04:50:33.369Z,15.58
2023-05-05T04:53:03.857Z,15.56
2023-05-05T04:55:35.320Z,15.57
2023-05-05T04:58:05.879Z,15.58
2023-05-05T05:00:38.190Z,15.60
2023-05-05T05:03:10.057Z,15.63
2023-05-05T05:05:39.070Z,15.66
2023-05-05T05:08:09.981Z,15.68
2023-05-05T05:10:40.474Z,15.71
2023-05-05T05:13:12.674Z,15.73
2023-05-05T05:15:44.341Z,15.74
2023-05-05T05:18:15.483Z,15.76
2023-05-05T05:20:46.477Z,15.77
2023-05-05T05:23:17.845Z,15.79
2023-05-05T05:25:48.878Z,15.80
2023-05-05T05:28:19.894Z,15.81
2023-05-05T05:30:53.828Z,15.82
2023-05-05T05:33:24.470Z,15.84
2023-05-05T05:35:55.156Z,15.85
2023-05-05T05:38:25.945Z,15.87
2023-05-05T05:40:58.238Z,15.88
2023-05-05T05:43:29.755Z,15.90
2023-05-05T05:46:00.337Z,15.92
2023-05-05T05:48:31.493Z,15.93
2023-05-05T05:51:02.580Z,15.95
2023-05-05T05:53:33.346Z,15.95
2023-05-05T05:56:04.263Z,15.97
2023-05-05T05:58:38.197Z,15.99
2023-05-05T06:01:08.930Z,16.00
2023-05-05T06:03:39.615Z,16.01
2023-05-05T06:06:10.591Z,16.03
2023-05-05T06:08:41.225Z,16.04
2023-05-05T06:11:11.799Z,16.05
2023-05-05T06:13:42.354Z,16.05
2023-05-05T06:16:12.952Z,16.07
2023-05-05T06:18:44.194Z,16.07
2023-05-05T06:21:14.732Z,16.08
2023-05-05T06:23:45.209Z,16.09
2023-05-05T06:26:15.859Z,16.11
2023-05-05T06:28:46.358Z,16.12
2023-05-05T06:31:17.600Z,16.14
2023-05-05T06:33:48.065Z,16.15
2023-05-05T06:36:18.652Z,16.17
2023-05-05T06:38:50.314Z,16.18
2023-05-05T06:41:21.353Z,16.19
2023-05-05T06:43:51.952Z,16.21
2023-05-05T06:46:22.416Z,16.23
2023-05-05T06:48:52.999Z,16.24
2023-05-05T06:51:23.867Z,16.26
2023-05-05T06:53:54.339Z,16.28
2023-05-05T06:56:25.032Z,16.30
2023-05-05T06:58:55.507Z,16.31
2023-05-05T07:01:26.295Z,16.32
2023-05-05T07:03:57.163Z,16.34
2023-05-05T07:06:27.769Z,16.36
2023-05-05T07:08:58.264Z,16.38
2023-05-05T07:11:28.687Z,16.39
2023-05-05T07:13:59.174Z,16.40
2023-05-05T07:16:29.754Z,16.43
2023-05-05T07:19:00.930Z,16.44
2023-05-05T07:21:31.673Z,16.46
2023-05-05T07:24:03.113Z,16.50
2023-05-05T07:26:33.829Z,16.52
2023-05-05T07:29:07.152Z,16.54
2023-05-05T07:31:37.632Z,16.57
2023-05-05T07:34:08.127Z,16.59
2023-05-05T07:36:38.611Z,16.61
2023-05-05T07:39:09.159Z,16.63
2023-05-05T07:41:39.766Z,16.66
2023-05-05T07:44:11.463Z,16.68
2023-05-05T07:46:41.934Z,16.70
2023-05-05T07:49:12.392Z,16.73
2023-05-05T07:51:43.118Z,16.75
2023-05-05T07:54:13.833Z,16.77
2023-05-05T07:56:44.607Z,16.79
2023-05-05T07:59:15.153Z,16.82
2023-05-05T08:01:45.569Z,16.83
2023-05-05T08:04:16.084Z,16.85
2023-05-05T08:06:46.650Z,16.87
2023-05-05T08:09:17.112Z,16.89
2023-05-05T08:11:47.560Z,16.91
2023-05-05T08:14:18.090Z,16.93
2023-05-05T08:16:48.539Z,16.95
2023-05-05T08:19:28.782Z,16.97
2023-05-05T08:22:01.584Z,16.99
2023-05-05T08:24:32.188Z,17.01
2023-05-05T08:27:02.691Z,17.03
2023-05-05T08:29:33.138Z,17.06
2023-05-05T08:32:03.570Z,17.08
2023-05-05T08:34:34.025Z,17.11
2023-05-05T08:37:04.469Z,17.14
2023-05-05T08:39:34.924Z,17.18
2023-05-05T08:42:05.852Z,17.20
2023-05-05T08:44:36.295Z,17.23
2023-05-05T08:47:10.197Z,17.25
2023-05-05T08:49:47.973Z,17.26
2023-05-05T08:52:23.733Z,17.29
2023-05-05T08:55:00.902Z,17.31
2023-05-05T08:57:39.500Z,17.34
2023-05-05T09:00:13.751Z,17.38
2023-05-05T09:02:46.659Z,17.44
2023-05-05T09:05:18.016Z,17.50
2023-05-05T09:07:48.982Z,17.58
2023-05-05T09:10:20.219Z,17.64
2023-05-05T09:12:51.581Z,17.69
2023-05-05T09:15:22.235Z,17.74
2023-05-05T09:17:52.865Z,17.79
2023-05-05T09:20:24.375Z,17.83
2023-05-05T09:22:54.806Z,17.89
2023-05-05T09:25:25.236Z,17.93
2023-05-05T09:27:56.042Z,17.96
2023-05-05T09:30:27.945Z,18.01
2023-05-05T09:32:58.445Z,18.06
2023-05-05T09:35:30.356Z,18.09
2023-05-05T09:38:11.653Z,18.14
2023-05-05T09:40:49.009Z,18.20
2023-05-05T09:43:20.826Z,18.24
2023-05-05T09:45:50.336Z,18.29
2023-05-05T09:48:29.003Z,18.32
2023-05-05T09:51:00.190Z,18.36
2023-05-05T09:53:41.849Z,18.40
2023-05-05T09:56:12.310Z,18.44
2023-05-05T09:58:43.202Z,18.48
2023-05-05T10:01:24.529Z,18.52
2023-05-05T10:03:55.024Z,18.56
2023-05-05T10:06:42.698Z,18.59
2023-05-05T10:09:13.144Z,18.64
2023-05-05T10:11:46.191Z,18.67
2023-05-05T10:14:18.758Z,18.71
2023-05-05T10:16:52.212Z,18.75
2023-05-05T10:19:24.251Z,18.79
2023-05-05T10:22:00.508Z,18.82
2023-05-05T10:24:39.799Z,18.86
2023-05-05T10:27:16.661Z,18.90
2023-05-05T10:29:53.426Z,18.94
2023-05-05T10:32:54.381Z,18.99
2023-05-05T10:35:27.293Z,19.04
2023-05-05T10:37:59.398Z,19.07
2023-05-05T10:40:30.106Z,19.10
2023-05-05T10:43:01.034Z,19.14
2023-05-05T10:45:32.275Z,19.19
2023-05-05T10:48:09.947Z,19.22
2023-05-05T10:50:47.718Z,19.27
2023-05-05T10:53:24.475Z,19.31
2023-05-05T10:56:01.384Z,19.34
2023-05-05T10:58:55.626Z,19.38
2023-05-05T11:01:34.507Z,19.43
2023-05-05T11:04:22.686Z,19.49
2023-05-05T11:07:27.797Z,19.53
2023-05-05T11:10:01.414Z,19.59
2023-05-05T11:12:33.210Z,19.63
2023-05-05T11:15:19.717Z,19.67
2023-05-05T11:17:50.335Z,19.71
2023-05-05T11:20:40.840Z,19.76
2023-05-05T11:23:25.358Z,19.83
2023-05-05T11:25:57.680Z,19.88
2023-05-05T11:28:31.150Z,19.93
2023-05-05T11:31:20.948Z,19.97
2023-05-05T11:33:51.517Z,20.00
2023-05-05T11:36:38.240Z,20.04
2023-05-05T11:39:20.991Z,20.09
2023-05-05T11:42:17.610Z,20.15
2023-05-05T11:44:48.482Z,20.20
2023-05-05T11:47:32.741Z,20.23
2023-05-05T11:50:19.020Z,20.27
2023-05-05T11:52:49.948Z,20.32
2023-05-05T11:55:24.130Z,20.35
2023-05-05T11:57:54.625Z,20.38
2023-05-05T12:00:34.800Z,20.42
2023-05-05T12:03:06.490Z,20.47
2023-05-05T12:05:37.272Z,20.53
2023-05-05T12:08:07.884Z,20.57
2023-05-05T12:10:38.389Z,20.60
2023-05-05T12:13:20.563Z,20.64
2023-05-05T12:15:51.339Z,20.67
2023-05-05T12:18:22.452Z,20.71
2023-05-05T12:20:52.968Z,20.74
2023-05-05T12:23:23.833Z,20.75
2023-05-05T12:25:54.277Z,20.78
2023-05-05T12:28:24.699Z,20.81
2023-05-05T12:31:01.625Z,20.85
2023-05-05T12:33:39.540Z,20.90
2023-05-05T12:36:10.855Z,20.96
2023-05-05T12:38:41.957Z,21.01
2023-05-05T12:41:18.579Z,21.06
2023-05-05T12:43:49.015Z,21.10
2023-05-05T12:46:19.502Z,21.15
2023-05-05T12:49:04.781Z,21.20
2023-05-05T12:51:36.505Z,21.23
2023-05-05T12:54:06.300Z,21.27
2023-05-05T12:56:41.734Z,21.28
2023-05-05T12:59:13.512Z,21.31
2023-05-05T13:01:53.608Z,21.38
2023-05-05T13:04:25.815Z,21.51
2023-05-05T13:07:13.579Z,21.66
2023-05-05T13:09:44.714Z,21.84
2023-05-05T13:12:15.272Z,21.99
2023-05-05T13:14:46.837Z,22.12
2023-05-05T13:17:15.898Z,22.23
2023-05-05T13:19:47.139Z,22.32
2023-05-05T13:22:18.014Z,22.43
2023-05-05T13:24:52.146Z,22.52
2023-05-05T13:27:23.769Z,22.63
2023-05-05T13:29:54.243Z,22.72
2023-05-05T13:32:24.724Z,22.81
2023-05-05T13:34:55.285Z,22.91
2023-05-05T13:37:25.750Z,23.00
2023-05-05T13:39:59.417Z,23.11
2023-05-05T13:42:29.935Z,23.22
2023-05-05T13:45:00.381Z,23.33
2023-05-05T13:47:30.817Z,23.44
2023-05-05T13:50:02.084Z,23.54
2023-05-05T13:52:33.428Z,23.67
2023-05-05T13:55:04.207Z,23.76
2023-05-05T13:57:34.671Z,23.81
2023-05-05T14:00:05.866Z,23.85
2023-05-05T14:02:38.160Z,23.90
2023-05-05T14:05:10.852Z,23.93
2023-05-05T14:07:41.729Z,23.98
2023-05-05T14:10:12.758Z,24.00
2023-05-05T14:12:43.622Z,24.03
2023-05-05T14:15:14.273Z,24.10
2023-05-05T14:17:44.785Z,24.17
2023-05-05T14:20:15.938Z,24.23
2023-05-05T14:22:48.743Z,24.31
2023-05-05T14:25:20.026Z,24.43
2023-05-05T14:27:50.892Z,24.55
2023-05-05T14:30:21.329Z,24.68
2023-05-05T14:32:51.779Z,24.77
2023-05-05T14:35:22.468Z,24.80
2023-05-05T14:37:52.919Z,24.80
2023-05-05T14:40:23.624Z,24.84
2023-05-05T14:42:54.054Z,24.87
2023-05-05T14:45:24.530Z,24.78
2023-05-05T14:47:55.103Z,24.73
2023-05-05T14:50:25.796Z,24.76
2023-05-05T14:52:56.344Z,24.85
2023-05-05T14:55:27.033Z,24.96
2023-05-05T14:57:57.469Z,25.05
2023-05-05T15:00:28.589Z,25.13
2023-05-05T15:02:59.126Z,25.21
2023-05-05T15:05:29.716Z,25.31
2023-05-05T15:08:00.158Z,25.40
2023-05-05T15:10:30.668Z,25.48
2023-05-05T15:13:01.187Z,25.52
2023-05-05T15:15:31.664Z,25.63
2023-05-05T15:18:02.203Z,25.74
2023-05-05T15:20:32.779Z,25.84
2023-05-05T15:23:04.205Z,25.92
2023-05-05T15:25:33.154Z,25.90
2023-05-05T15:28:03.639Z,25.79
2023-05-05T15:30:34.462Z,25.68
2023-05-05T15:33:05.011Z,25.51
2023-05-05T15:35:36.246Z,25.37
2023-05-05T15:38:06.789Z,25.24
2023-05-05T15:40:37.259Z,25.12
2023-05-05T15:43:08.126Z,25.01
2023-05-05T15:45:41.209Z,24.89
2023-05-05T15:48:11.741Z,24.75
2023-05-05T15:50:42.294Z,24.62
2023-05-05T15:53:12.761Z,24.51
2023-05-05T15:55:43.192Z,24.40
2023-05-05T15:58:13.675Z,24.33
2023-05-05T16:00:44.146Z,24.24
2023-05-05T16:03:14.784Z,24.15
2023-05-05T16:05:45.414Z,24.05
2023-05-05T16:08:15.903Z,23.96
2023-05-05T16:10:46.332Z,23.87
2023-05-05T16:13:16.848Z,23.77
2023-05-05T16:15:47.371Z,23.68
2023-05-05T16:18:17.869Z,23.59
2023-05-05T16:20:48.364Z,23.50
2023-05-05T16:23:18.856Z,23.44
2023-05-05T16:25:49.303Z,23.39
2023-05-05T16:28:19.832Z,23.33
2023-05-05T16:30:50.259Z,23.29
2023-05-05T16:33:20.761Z,23.25
2023-05-05T16:35:51.183Z,23.20
2023-05-05T16:38:21.693Z,23.15
2023-05-05T16:40:52.207Z,23.11
2023-05-05T16:43:22.856Z,23.06
2023-05-05T16:45:53.376Z,23.03
2023-05-05T16:48:23.894Z,23.00
2023-05-05T16:50:56.479Z,22.98
2023-05-05T16:53:27.335Z,22.95
2023-05-05T16:55:57.912Z,22.92
2023-05-05T16:58:28.611Z,22.88
2023-05-05T17:01:01.843Z,22.83
2023-05-05T17:03:32.346Z,22.79
2023-05-05T17:06:03.312Z,22.75
2023-05-05T17:08:33.808Z,22.70
2023-05-05T17:11:04.302Z,22.66
2023-05-05T17:13:34.778Z,22.61
2023-05-05T17:16:05.732Z,22.58
2023-05-05T17:18:37.171Z,22.52
2023-05-05T17:21:08.351Z,22.48
2023-05-05T17:23:38.805Z,22.43
2023-05-05T17:26:09.363Z,22.40
2023-05-05T17:28:39.835Z,22.37
2023-05-05T17:31:10.822Z,22.34
2023-05-05T17:33:41.327Z,22.31
2023-05-05T17:36:12.421Z,22.26
2023-05-05T17:38:42.860Z,22.23
2023-05-05T17:41:13.370Z,22.20
2023-05-05T17:43:43.902Z,22.18
2023-05-05T17:46:14.471Z,22.15
2023-05-05T17:48:45.108Z,22.13
2023-05-05T17:51:15.614Z,22.10
2023-05-05T17:53:46.188Z,22.07
2023-05-05T17:56:16.666Z,22.03
2023-05-05T17:58:48.221Z,21.99
2023-05-05T18:01:25.513Z,21.95
2023-05-05T18:03:56.110Z,21.90
2023-05-05T18:06:27.015Z,21.86
2023-05-05T18:08:57.570Z,21.81
2023-05-05T18:11:31.014Z,21.77
2023-05-05T18:14:01.593Z,21.73
2023-05-05T18:16:32.075Z,21.68
2023-05-05T18:19:02.502Z,21.64
2023-05-05T18:21:33.194Z,21.61
2023-05-05T18:24:15.853Z,21.59
2023-05-05T18:26:52.483Z,21.56
2023-05-05T18:29:24.283Z,21.54
2023-05-05T18:31:55.190Z,21.48
2023-05-05T18:34:26.357Z,21.44
2023-05-05T18:36:57.199Z,21.39
2023-05-05T18:39:28.206Z,21.34
2023-05-05T18:41:58.654Z,21.28
2023-05-05T18:44:29.160Z,21.23
2023-05-05T18:46:59.912Z,21.17
2023-05-05T18:49:31.564Z,21.13
2023-05-05T18:52:02.283Z,21.08
2023-05-05T18:54:32.804Z,21.03
2023-05-05T18:57:03.687Z,20.98
2023-05-05T18:59:34.137Z,20.93
2023-05-05T19:02:04.568Z,20.91
2023-05-05T19:04:37.508Z,20.87
2023-05-05T19:07:08.423Z,20.83
2023-05-05T19:09:38.871Z,20.79
2023-05-05T19:12:09.759Z,20.75
2023-05-05T19:14:40.237Z,20.69
2023-05-05T19:17:10.677Z,20.64
2023-05-05T19:19:41.171Z,20.60
2023-05-05T19:22:11.617Z,20.56
2023-05-05T19:24:42.132Z,20.53
2023-05-05T19:27:16.404Z,20.50
2023-05-05T19:29:52.050Z,20.46
2023-05-05T19:32:23.348Z,20.42
2023-05-05T19:34:54.605Z,20.37
2023-05-05T19:37:25.093Z,20.34
2023-05-05T19:39:56.572Z,20.30
2023-05-05T19:42:27.542Z,20.26
2023-05-05T19:44:58.268Z,20.22
2023-05-05T19:47:28.866Z,20.18
2023-05-05T19:49:59.660Z,20.15
2023-05-05T19:52:30.182Z,20.11
2023-05-05T19:55:00.718Z,20.07
2023-05-05T19:57:31.240Z,20.03
2023-05-05T20:00:02.117Z,19.98
2023-05-05T20:02:36.740Z,19.94
2023-05-05T20:05:09.007Z,19.89
2023-05-05T20:07:39.509Z,19.85
2023-05-05T20:10:14.186Z,19.81
2023-05-05T20:12:48.251Z,19.76
2023-05-05T20:15:20.352Z,19.72
2023-05-05T20:17:51.091Z,19.68
2023-05-05T20:20:24.015Z,19.65
2023-05-05T20:22:54.514Z,19.61
2023-05-05T20:25:25.091Z,19.57
2023-05-05T20:27:55.593Z,19.53
2023-05-05T20:30:26.876Z,19.49
2023-05-05T20:32:58.087Z,19.44
2023-05-05T20:35:28.712Z,19.39
2023-05-05T20:37:59.132Z,19.36
2023-05-05T20:40:30.313Z,19.32
2023-05-05T20:43:00.842Z,19.29
2023-05-05T20:45:31.868Z,19.25
2023-05-05T20:48:02.383Z,19.20
2023-05-05T20:50:33.169Z,19.17
2023-05-05T20:53:03.630Z,19.12
2023-05-05T20:55:34.134Z,19.08
2023-05-05T20:58:05.419Z,19.04
2023-05-05T21:00:36.261Z,19.01
2023-05-05T21:03:06.853Z,18.99
2023-05-05T21:05:37.457Z,18.96
2023-05-05T21:08:08.718Z,18.92
2023-05-05T21:10:40.133Z,18.88
2023-05-05T21:13:10.751Z,18.85
2023-05-05T21:15:41.440Z,18.82
2023-05-05T21:18:11.895Z,18.79
2023-05-05T21:20:42.513Z,18.75
2023-05-05T21:23:13.041Z,18.71
2023-05-05T21:25:43.483Z,18.67
2023-05-05T21:28:13.953Z,18.65
2023-05-05T21:30:46.625Z,18.63
2023-05-05T21:33:18.850Z,18.61
2023-05-05T21:35:49.326Z,18.57
2023-05-05T21:38:19.772Z,18.55
2023-05-05T21:40:50.391Z,18.52
2023-05-05T21:43:20.952Z,18.49
2023-05-05T21:45:58.647Z,18.45
2023-05-05T21:48:29.199Z,18.42
2023-05-05T21:50:59.819Z,18.38
2023-05-05T21:53:30.921Z,18.34
2023-05-05T21:56:01.447Z,18.30
2023-05-05T21:58:31.934Z,18.27
2023-05-05T22:01:02.589Z,18.24
2023-05-05T22:03:34.551Z,18.21
2023-05-05T22:06:05.437Z,18.18
2023-05-05T22:08:35.965Z,18.15
2023-05-05T22:11:06.821Z,18.12
2023-05-05T22:13:39.062Z,18.08
2023-05-05T22:16:10.818Z,18.05
2023-05-05T22:18:39.777Z,18.02
2023-05-05T22:21:10.361Z,17.99
2023-05-05T22:23:41.938Z,17.95
2023-05-05T22:26:11.143Z,17.93
2023-05-05T22:28:41.624Z,17.89
2023-05-05T22:31:12.192Z,17.85
2023-05-05T22:33:42.646Z,17.81
2023-05-05T22:36:13.221Z,17.79
2023-05-05T22:38:43.694Z,17.75
2023-05-05T22:41:14.357Z,17.73
2023-05-05T22:43:44.843Z,17.72
2023-05-05T22:46:15.319Z,17.70
2023-05-05T22:48:46.180Z,17.67
2023-05-05T22:51:16.692Z,17.65
2023-05-05T22:53:47.125Z,17.63
2023-05-05T22:56:17.979Z,17.61
2023-05-05T22:58:48.512Z,17.58
2023-05-05T23:01:19.050Z,17.56
2023-05-05T23:03:49.531Z,17.54
2023-05-05T23:06:20.104Z,17.51
2023-05-05T23:08:50.633Z,17.50
2023-05-05T23:11:21.177Z,17.48
2023-05-05T23:13:51.685Z,17.46
2023-05-05T23:16:22.165Z,17.43
2023-05-05T23:18:52.628Z,17.41
2023-05-05T23:21:23.173Z,17.39
2023-05-05T23:23:55.055Z,17.37
2023-05-05T23:26:25.940Z,17.36
2023-05-05T23:28:56.410Z,17.34
2023-05-05T23:31:26.954Z,17.31
2023-05-05T23:33:57.420Z,17.29
2023-05-05T23:36:27.934Z,17.27
2023-05-05T23:38:58.373Z,17.26
2023-05-05T23:41:28.821Z,17.24
2023-05-05T23:43:59.406Z,17.23
2023-05-05T23:46:29.931Z,17.22
2023-05-05T23:49:00.457Z,17.20
2023-05-05T23:51:31.022Z,17.18
2023-05-05T23:54:01.452Z,17.16
2023-05-05T23:56:31.964Z,17.15
2023-05-05T23:59:02.741Z,17.14
